createdAt,value
2019-06-10T00:00:36.199Z,75.10
2019-06-10T00:01:38.050Z,75.00
2019-06-10T00:02:41.393Z,75.00
2019-06-10T00:03:43.187Z,75.00
2019-06-10T00:04:44.817Z,74.90
2019-06-10T00:05:46.413Z,74.90
2019-06-10T00:06:48.162Z,75.10
2019-06-10T00:07:51.634Z,75.20
2019-06-10T00:08:53.540Z,75.00
2019-06-10T00:09:56.164Z,75.00
2019-06-10T00:10:58.240Z,75.60
2019-06-10T00:12:02.763Z,75.00
2019-06-10T00:13:07.320Z,74.70
2019-06-10T00:14:10.715Z,74.60
2019-06-10T00:15:12.649Z,74.70
2019-06-10T00:16:14.248Z,74.60
2019-06-10T00:17:15.931Z,74.60
2019-06-10T00:18:37.296Z,74.60
2019-06-10T00:19:21.722Z,74.70
2019-06-10T00:20:23.843Z,74.70
2019-06-10T00:21:25.536Z,74.60
2019-06-10T00:22:27.229Z,74.60
2019-06-10T00:23:28.845Z,74.80
2019-06-10T00:24:31.450Z,74.80
2019-06-10T00:25:33.607Z,74.70
2019-06-10T00:26:35.201Z,74.70
2019-06-10T00:27:37.302Z,74.90
2019-06-10T00:28:40.678Z,75.10
2019-06-10T00:29:42.725Z,75.00
2019-06-10T00:30:44.353Z,75.00
2019-06-10T00:31:46.033Z,75.10
2019-06-10T00:32:47.611Z,75.20
2019-06-10T00:33:51.769Z,75.20
2019-06-10T00:34:53.274Z,75.30
2019-06-10T00:35:54.966Z,75.50
2019-06-10T00:36:56.655Z,75.00
2019-06-10T00:37:59.567Z,74.90
2019-06-10T00:39:03.501Z,74.90
2019-06-10T00:40:07.636Z,75.00
2019-06-10T00:41:13.720Z,75.10
2019-06-10T00:42:15.204Z,75.40
2019-06-10T00:43:16.697Z,75.50
2019-06-10T00:44:20.433Z,75.60
2019-06-10T00:45:22.234Z,75.90
2019-06-10T00:46:23.811Z,75.80
2019-06-10T00:47:25.498Z,75.90
2019-06-10T00:48:29.331Z,76.00
2019-06-10T00:49:31.721Z,76.00
2019-06-10T00:50:33.654Z,76.30
2019-06-10T00:51:35.354Z,76.30
2019-06-10T00:52:36.942Z,76.20
2019-06-10T00:53:38.676Z,76.20
2019-06-10T00:54:41.750Z,76.20
2019-06-10T00:55:43.918Z,76.20
2019-06-10T00:56:45.623Z,76.30
2019-06-10T00:57:47.309Z,76.30
2019-06-10T00:58:51.219Z,76.30
2019-06-10T00:59:52.547Z,76.30
2019-06-10T01:00:54.248Z,76.30
2019-06-10T01:01:56.166Z,76.30
2019-06-10T01:03:00.673Z,76.50
2019-06-10T01:04:03.794Z,76.40
2019-06-10T01:05:05.408Z,76.30
2019-06-10T01:06:08.430Z,76.50
2019-06-10T01:07:11.696Z,76.40
2019-06-10T01:08:15.805Z,76.50
2019-06-10T01:09:17.390Z,76.40
2019-06-10T01:10:21.075Z,76.50
2019-06-10T01:11:27.014Z,76.60
2019-06-10T01:12:26.097Z,76.60
2019-06-10T01:13:27.681Z,77.20
2019-06-10T01:14:29.330Z,76.50
2019-06-10T01:15:31.196Z,76.30
2019-06-10T01:16:32.927Z,76.20
2019-06-10T01:17:34.630Z,76.30
2019-06-10T01:18:38.562Z,76.50
2019-06-10T01:19:41.517Z,76.30
2019-06-10T01:20:43.218Z,76.10
2019-06-10T01:21:45.243Z,76.10
2019-06-10T01:22:47.289Z,76.10
2019-06-10T01:23:50.964Z,75.80
2019-06-10T01:24:52.499Z,75.90
2019-06-10T01:25:54.205Z,76.10
2019-06-10T01:26:55.769Z,76.10
2019-06-10T01:27:57.456Z,76.20
2019-06-10T01:29:00.968Z,75.80
2019-06-10T01:30:10.198Z,76.40
2019-06-10T01:31:12.118Z,76.50
2019-06-10T01:32:13.761Z,76.60
2019-06-10T01:33:17.522Z,76.70
2019-06-10T01:34:21.548Z,76.70
2019-06-10T01:35:22.995Z,76.60
2019-06-10T01:36:24.672Z,76.90
2019-06-10T01:37:26.353Z,76.80
2019-06-10T01:38:28.049Z,76.90
2019-06-10T01:39:30.839Z,77.00
2019-06-10T01:40:32.918Z,76.90
2019-06-10T01:41:34.837Z,76.90
2019-06-10T01:42:36.430Z,76.90
2019-06-10T01:43:40.659Z,77.00
2019-06-10T01:44:41.829Z,77.80
2019-06-10T01:45:43.549Z,77.10
2019-06-10T01:46:45.534Z,77.10
2019-06-10T01:47:47.221Z,77.10
2019-06-10T01:48:51.717Z,77.20
2019-06-10T01:49:52.187Z,77.90
2019-06-10T01:50:53.938Z,77.10
2019-06-10T01:51:55.658Z,77.10
2019-06-10T01:52:57.239Z,77.10
2019-06-10T01:54:01.187Z,77.10
2019-06-10T01:55:04.925Z,76.80
2019-06-10T01:56:07.726Z,76.80
2019-06-10T01:57:12.267Z,76.80
2019-06-10T01:58:16.084Z,77.10
2019-06-10T01:59:17.004Z,77.10
2019-06-10T02:00:25.613Z,76.90
2019-06-10T02:01:44.568Z,76.80
2019-06-10T02:02:46.209Z,77.10
2019-06-10T02:03:47.861Z,76.80
2019-06-10T02:04:51.653Z,76.70
2019-06-10T02:05:52.841Z,76.70
2019-06-10T02:06:54.881Z,77.30
2019-06-10T02:07:56.578Z,76.50
2019-06-10T02:09:04.830Z,76.30
2019-06-10T02:10:07.102Z,77.00
2019-06-10T02:11:09.216Z,76.50
2019-06-10T02:12:15.888Z,76.70
2019-06-10T02:13:32.707Z,76.90
2019-06-10T02:14:34.685Z,77.00
2019-06-10T02:15:36.375Z,77.00
2019-06-10T02:16:37.963Z,77.10
2019-06-10T02:17:41.580Z,77.40
2019-06-10T02:18:56.867Z,77.40
2019-06-10T02:19:46.482Z,77.50
2019-06-10T02:20:48.171Z,77.60
2019-06-10T02:21:51.060Z,77.60
2019-06-10T02:22:52.995Z,77.80
2019-06-10T02:23:54.591Z,77.80
2019-06-10T02:24:56.647Z,77.60
2019-06-10T02:26:01.056Z,77.80
2019-06-10T02:27:01.825Z,77.90
2019-06-10T02:28:03.558Z,78.00
2019-06-10T02:29:05.148Z,78.10
2019-06-10T02:30:15.000Z,78.30
2019-06-10T02:31:14.213Z,78.40
2019-06-10T02:32:18.676Z,78.40
2019-06-10T02:33:22.745Z,78.40
2019-06-10T02:34:26.842Z,78.20
2019-06-10T02:35:38.135Z,78.40
2019-06-10T02:36:31.839Z,78.40
2019-06-10T02:37:53.732Z,78.50
2019-06-10T02:38:54.722Z,78.70
2019-06-10T02:39:56.317Z,78.70
2019-06-10T02:40:57.886Z,78.70
2019-06-10T02:42:04.411Z,78.90
2019-06-10T02:43:05.585Z,78.90
2019-06-10T02:44:07.306Z,79.00
2019-06-10T02:45:13.800Z,79.20
2019-06-10T02:46:16.052Z,79.20
2019-06-10T02:47:22.626Z,79.30
2019-06-10T02:48:24.684Z,79.30
2019-06-10T02:49:46.595Z,79.60
2019-06-10T02:50:40.111Z,79.70
2019-06-10T02:51:43.752Z,79.80
2019-06-10T02:52:45.116Z,80.00
2019-06-10T02:53:46.703Z,80.10
2019-06-10T02:54:48.520Z,80.30
2019-06-10T02:55:53.560Z,80.30
2019-06-10T02:56:54.068Z,80.30
2019-06-10T02:57:55.946Z,80.30
2019-06-10T02:58:57.654Z,80.20
2019-06-10T02:59:59.275Z,80.30
2019-06-10T03:01:04.945Z,80.10
2019-06-10T03:02:06.628Z,80.10
2019-06-10T03:03:08.325Z,80.10
2019-06-10T03:04:13.504Z,80.00
2019-06-10T03:05:14.349Z,80.00
2019-06-10T03:06:19.874Z,80.10
2019-06-10T03:07:25.568Z,80.10
2019-06-10T03:08:27.294Z,80.10
2019-06-10T03:09:31.863Z,80.10
2019-06-10T03:10:36.216Z,80.20
2019-06-10T03:11:37.077Z,80.10
2019-06-10T03:12:38.870Z,80.00
2019-06-10T03:13:42.482Z,80.20
2019-06-10T03:14:43.962Z,80.20
2019-06-10T03:16:05.525Z,80.30
2019-06-10T03:17:17.844Z,80.50
2019-06-10T03:18:19.927Z,80.40
2019-06-10T03:19:39.678Z,80.60
2019-06-10T03:20:44.698Z,80.60
2019-06-10T03:21:46.298Z,80.60
2019-06-10T03:22:47.910Z,80.70
2019-06-10T03:23:49.903Z,80.60
2019-06-10T03:24:52.380Z,80.60
2019-06-10T03:26:04.178Z,80.60
2019-06-10T03:27:06.282Z,80.60
2019-06-10T03:28:07.865Z,80.50
2019-06-10T03:29:09.462Z,80.60
2019-06-10T03:30:17.069Z,80.60
2019-06-10T03:31:15.509Z,80.60
2019-06-10T03:32:20.171Z,80.80
2019-06-10T03:33:27.658Z,81.50
2019-06-10T03:34:33.619Z,80.80
2019-06-10T03:35:28.511Z,80.90
2019-06-10T03:36:32.243Z,80.90
2019-06-10T03:37:34.029Z,80.90
2019-06-10T03:38:37.077Z,81.10
2019-06-10T03:39:38.846Z,81.00
2019-06-10T03:40:43.294Z,80.90
2019-06-10T03:41:44.194Z,81.00
2019-06-10T03:42:46.240Z,81.00
2019-06-10T03:43:47.832Z,80.90
2019-06-10T03:45:09.205Z,80.90
2019-06-10T03:46:13.347Z,80.80
2019-06-10T03:47:14.307Z,80.80
2019-06-10T03:48:17.177Z,80.80
2019-06-10T03:49:19.155Z,80.80
2019-06-10T03:50:23.961Z,80.70
2019-06-10T03:51:27.433Z,80.30
2019-06-10T03:52:28.522Z,80.30
2019-06-10T03:53:30.736Z,80.20
2019-06-10T03:54:33.129Z,80.00
2019-06-10T03:55:34.742Z,79.90
2019-06-10T03:56:36.471Z,79.80
2019-06-10T03:57:38.141Z,79.90
2019-06-10T03:58:42.775Z,79.90
2019-06-10T03:59:43.990Z,79.70
2019-06-10T04:00:45.605Z,79.70
2019-06-10T04:01:47.284Z,79.60
2019-06-10T04:02:48.866Z,79.40
2019-06-10T04:03:52.818Z,79.50
2019-06-10T04:04:53.847Z,79.30
2019-06-10T04:05:55.835Z,79.50
2019-06-10T04:06:57.524Z,79.30
2019-06-10T04:07:59.105Z,79.40
2019-06-10T04:09:02.876Z,79.30
2019-06-10T04:10:05.802Z,79.10
2019-06-10T04:11:07.413Z,79.20
2019-06-10T04:12:09.109Z,79.30
2019-06-10T04:13:13.059Z,79.50
2019-06-10T04:14:14.195Z,79.60
2019-06-10T04:15:15.768Z,79.60
2019-06-10T04:16:17.658Z,79.80
2019-06-10T04:17:19.606Z,79.80
2019-06-10T04:18:24.193Z,79.80
2019-06-10T04:19:25.817Z,79.80
2019-06-10T04:20:29.524Z,79.70
2019-06-10T04:21:32.679Z,79.50
2019-06-10T04:22:34.522Z,79.40
2019-06-10T04:23:36.611Z,79.20
2019-06-10T04:24:39.177Z,79.10
2019-06-10T04:25:42.733Z,79.00
2019-06-10T04:26:44.382Z,79.20
2019-06-10T04:27:45.969Z,79.20
2019-06-10T04:28:47.671Z,79.30
2019-06-10T04:29:49.278Z,79.30
2019-06-10T04:30:53.454Z,79.70
2019-06-10T04:31:54.505Z,79.50
2019-06-10T04:32:56.198Z,79.80
2019-06-10T04:33:57.779Z,79.30
2019-06-10T04:34:59.366Z,79.50
2019-06-10T04:36:02.983Z,79.50
2019-06-10T04:37:04.487Z,79.20
2019-06-10T04:38:06.186Z,78.90
2019-06-10T04:39:07.887Z,78.90
2019-06-10T04:40:09.777Z,78.60
2019-06-10T04:41:14.238Z,78.40
2019-06-10T04:42:15.957Z,78.30
2019-06-10T04:43:18.412Z,78.30
2019-06-10T04:44:21.225Z,78.10
2019-06-10T04:45:25.089Z,78.30
2019-06-10T04:46:28.350Z,78.10
2019-06-10T04:47:33.107Z,77.80
2019-06-10T04:48:34.201Z,77.70
2019-06-10T04:49:35.882Z,77.40
2019-06-10T04:50:45.491Z,77.50
2019-06-10T04:51:43.199Z,77.60
2019-06-10T04:52:44.409Z,78.30
2019-06-10T04:53:46.351Z,78.20
2019-06-10T04:54:47.921Z,78.10
2019-06-10T04:55:49.526Z,78.40
2019-06-10T04:56:52.966Z,78.60
2019-06-10T04:57:54.742Z,79.00
2019-06-10T04:58:56.429Z,78.30
2019-06-10T04:59:58.133Z,78.20
2019-06-10T05:01:02.800Z,78.40
2019-06-10T05:02:05.643Z,78.30
2019-06-10T05:03:07.061Z,78.10
2019-06-10T05:04:08.753Z,78.10
2019-06-10T05:05:12.896Z,78.20
2019-06-10T05:06:13.728Z,78.00
2019-06-10T05:07:15.325Z,78.10
2019-06-10T05:08:17.045Z,78.10
2019-06-10T05:09:19.107Z,77.40
2019-06-10T05:10:23.666Z,78.10
2019-06-10T05:11:26.932Z,78.10
2019-06-10T05:12:27.994Z,77.10
2019-06-10T05:13:30.071Z,77.20
2019-06-10T05:14:33.439Z,76.60
2019-06-10T05:15:35.230Z,76.50
2019-06-10T05:16:36.768Z,76.90
2019-06-10T05:17:38.360Z,76.70
2019-06-10T05:18:42.162Z,77.00
2019-06-10T05:19:43.636Z,77.50
2019-06-10T05:20:54.867Z,76.20
2019-06-10T05:21:48.830Z,76.30
2019-06-10T05:22:52.707Z,76.20
2019-06-10T05:23:54.063Z,76.20
2019-06-10T05:24:55.761Z,75.80
2019-06-10T05:25:57.467Z,76.20
2019-06-10T05:26:59.046Z,76.40
2019-06-10T05:28:02.771Z,76.00
2019-06-10T05:29:04.088Z,75.50
2019-06-10T05:30:07.374Z,75.30
2019-06-10T05:31:09.432Z,74.80
2019-06-10T05:32:12.765Z,73.30
2019-06-10T05:33:14.619Z,74.40
2019-06-10T05:34:16.347Z,74.70
2019-06-10T05:35:18.011Z,75.10
2019-06-10T05:36:20.636Z,75.40
2019-06-10T05:37:26.335Z,74.20
2019-06-10T05:38:29.107Z,73.70
2019-06-10T05:39:34.734Z,74.30
2019-06-10T05:40:34.518Z,74.00
2019-06-10T05:41:36.209Z,72.50
2019-06-10T05:42:37.917Z,72.70
2019-06-10T05:43:39.510Z,71.60
2019-06-10T05:44:43.086Z,71.10
2019-06-10T05:45:47.703Z,71.20
2019-06-10T05:46:56.181Z,70.40
2019-06-10T05:47:58.089Z,70.30
2019-06-10T05:48:59.780Z,71.30
2019-06-10T05:50:22.517Z,71.80
2019-06-10T05:51:26.115Z,71.00
2019-06-10T05:52:29.041Z,70.80
2019-06-10T05:53:33.537Z,70.80
2019-06-10T05:54:35.458Z,70.10
2019-06-10T05:55:37.408Z,70.30
2019-06-10T05:56:40.038Z,70.20
2019-06-10T05:57:42.775Z,70.00
2019-06-10T05:58:44.646Z,70.00
2019-06-10T05:59:46.234Z,70.80
2019-06-10T06:00:47.927Z,71.90
2019-06-10T06:01:49.632Z,71.20
2019-06-10T06:02:52.283Z,70.80
2019-06-10T06:03:54.263Z,70.60
2019-06-10T06:04:55.918Z,70.30
2019-06-10T06:05:57.535Z,70.50
2019-06-10T06:06:59.233Z,70.00
2019-06-10T06:08:05.670Z,70.10
2019-06-10T06:09:05.826Z,70.80
2019-06-10T06:10:08.538Z,70.80
2019-06-10T06:11:12.415Z,70.30
2019-06-10T06:12:14.380Z,69.20
2019-06-10T06:13:16.559Z,69.20
2019-06-10T06:14:18.641Z,69.00
2019-06-10T06:15:22.106Z,69.70
2019-06-10T06:16:23.738Z,69.50
2019-06-10T06:17:25.856Z,67.80
2019-06-10T06:18:27.940Z,68.70
2019-06-10T06:19:30.329Z,68.90
2019-06-10T06:20:35.768Z,66.50
2019-06-10T06:21:42.692Z,66.20
2019-06-10T06:22:39.938Z,65.00
2019-06-10T06:23:43.688Z,64.50
2019-06-10T06:24:45.132Z,64.20
2019-06-10T06:25:47.215Z,63.50
2019-06-10T06:26:48.843Z,63.10
2019-06-10T06:27:52.478Z,63.30
2019-06-10T06:28:54.095Z,63.70
2019-06-10T06:29:55.776Z,64.80
2019-06-10T06:30:57.574Z,63.80
2019-06-10T06:31:59.215Z,63.10
2019-06-10T06:33:03.022Z,62.50
2019-06-10T06:34:04.455Z,63.30
2019-06-10T06:35:06.762Z,63.60
2019-06-10T06:36:08.458Z,63.00
2019-06-10T06:37:12.604Z,62.90
2019-06-10T06:38:13.542Z,63.20
2019-06-10T06:39:15.286Z,62.40
2019-06-10T06:40:18.015Z,62.40
2019-06-10T06:41:19.614Z,62.50
2019-06-10T06:42:22.878Z,62.70
2019-06-10T06:43:28.262Z,63.10
2019-06-10T06:44:29.593Z,63.20
2019-06-10T06:45:34.379Z,63.00
2019-06-10T06:46:37.598Z,62.60
2019-06-10T06:47:39.088Z,62.10
2019-06-10T06:48:43.656Z,62.20
2019-06-10T06:49:44.490Z,62.00
2019-06-10T06:51:00.549Z,62.00
2019-06-10T06:51:56.182Z,63.90
2019-06-10T06:53:18.694Z,63.50
2019-06-10T06:53:56.667Z,62.60
2019-06-10T06:54:58.775Z,62.50
2019-06-10T06:56:02.988Z,62.90
2019-06-10T06:57:04.045Z,62.00
2019-06-10T06:58:05.750Z,61.30
2019-06-10T06:59:07.362Z,60.30
2019-06-10T07:00:37.315Z,59.80
2019-06-10T07:01:14.996Z,60.20
2019-06-10T07:02:17.337Z,61.20
2019-06-10T07:03:18.914Z,60.80
2019-06-10T07:04:23.422Z,60.30
2019-06-10T07:05:24.638Z,60.80
2019-06-10T07:06:26.261Z,60.60
2019-06-10T07:07:30.147Z,60.80
2019-06-10T07:08:33.335Z,61.80
2019-06-10T07:09:57.726Z,62.20
2019-06-10T07:11:02.844Z,61.70
2019-06-10T07:12:04.617Z,61.80
2019-06-10T07:13:07.259Z,59.70
2019-06-10T07:14:10.175Z,59.90
2019-06-10T07:15:12.729Z,59.90
2019-06-10T07:16:14.431Z,60.50
2019-06-10T07:17:16.122Z,60.80
2019-06-10T07:18:17.848Z,61.30
2019-06-10T07:19:22.492Z,60.70
2019-06-10T07:20:23.441Z,60.70
2019-06-10T07:21:25.046Z,60.40
2019-06-10T07:22:26.661Z,60.30
2019-06-10T07:23:28.394Z,60.70
2019-06-10T07:24:32.676Z,61.00
2019-06-10T07:25:36.664Z,62.00
2019-06-10T07:26:42.120Z,61.00
2019-06-10T07:27:45.213Z,61.10
2019-06-10T07:28:47.062Z,61.80
2019-06-10T07:29:47.530Z,61.40
2019-06-10T07:30:52.722Z,59.80
2019-06-10T07:31:53.600Z,60.40
2019-06-10T07:32:55.785Z,61.10
2019-06-10T07:33:57.498Z,61.50
2019-06-10T07:34:59.203Z,60.00
2019-06-10T07:36:03.308Z,60.30
2019-06-10T07:37:04.792Z,59.30
2019-06-10T07:38:06.498Z,59.60
2019-06-10T07:39:08.218Z,59.50
2019-06-10T07:40:09.919Z,60.00
2019-06-10T07:41:12.607Z,60.10
2019-06-10T07:42:14.672Z,60.20
2019-06-10T07:43:16.332Z,61.00
2019-06-10T07:44:18.176Z,60.80
2019-06-10T07:45:22.005Z,60.50
2019-06-10T07:46:23.305Z,60.60
2019-06-10T07:47:25.250Z,60.80
2019-06-10T07:48:26.942Z,61.30
2019-06-10T07:49:28.691Z,61.20
2019-06-10T07:50:32.911Z,60.80
2019-06-10T07:51:34.653Z,60.40
2019-06-10T07:52:37.413Z,60.30
2019-06-10T07:53:40.020Z,60.20
2019-06-10T07:54:44.989Z,61.20
2019-06-10T07:55:46.771Z,59.90
2019-06-10T07:56:50.724Z,60.70
2019-06-10T07:57:53.077Z,60.00
2019-06-10T07:58:55.429Z,60.20
2019-06-10T07:59:57.154Z,60.20
2019-06-10T08:00:58.843Z,59.80
2019-06-10T08:02:02.879Z,59.70
2019-06-10T08:03:03.953Z,60.00
2019-06-10T08:04:12.018Z,60.30
2019-06-10T08:05:13.859Z,59.80
2019-06-10T08:06:17.706Z,59.70
2019-06-10T08:07:19.402Z,59.70
2019-06-10T08:08:23.328Z,59.60
2019-06-10T08:09:24.787Z,59.90
2019-06-10T08:10:26.525Z,59.80
2019-06-10T08:11:30.437Z,59.20
2019-06-10T08:12:32.556Z,59.30
2019-06-10T08:13:35.200Z,59.70
2019-06-10T08:14:37.412Z,60.10
2019-06-10T08:15:39.757Z,60.60
2019-06-10T08:16:44.780Z,59.50
2019-06-10T08:17:45.739Z,60.60
2019-06-10T08:19:16.085Z,60.10
2019-06-10T08:19:54.150Z,59.40
2019-06-10T08:20:54.774Z,59.20
2019-06-10T08:21:56.512Z,59.10
2019-06-10T08:22:58.271Z,59.80
2019-06-10T08:24:08.975Z,59.60
2019-06-10T08:25:12.446Z,58.90
2019-06-10T08:26:14.291Z,59.40
2019-06-10T08:27:16.279Z,59.50
2019-06-10T08:28:17.983Z,59.40
2019-06-10T08:29:20.009Z,59.50
2019-06-10T08:30:23.986Z,60.40
2019-06-10T08:31:25.131Z,59.40
2019-06-10T08:32:26.839Z,59.90
2019-06-10T08:33:28.519Z,60.30
2019-06-10T08:34:32.786Z,60.20
2019-06-10T08:35:44.165Z,60.10
2019-06-10T08:36:39.575Z,59.90
2019-06-10T08:37:42.793Z,59.80
2019-06-10T08:38:46.839Z,59.70
2019-06-10T08:39:47.743Z,59.90
2019-06-10T08:40:52.318Z,60.20
2019-06-10T08:41:53.208Z,58.80
2019-06-10T08:42:54.896Z,59.30
2019-06-10T08:43:56.482Z,58.60
2019-06-10T08:45:00.053Z,58.60
2019-06-10T08:46:02.766Z,59.10
2019-06-10T08:47:04.690Z,59.10
2019-06-10T08:48:06.280Z,59.30
2019-06-10T08:49:07.989Z,59.40
2019-06-10T08:50:09.598Z,59.60
2019-06-10T08:51:12.522Z,59.70
2019-06-10T08:52:14.650Z,59.60
2019-06-10T08:53:18.189Z,59.50
2019-06-10T08:54:19.837Z,59.40
2019-06-10T08:55:22.841Z,59.20
2019-06-10T08:56:24.643Z,59.00
2019-06-10T08:57:26.340Z,59.20
2019-06-10T08:58:28.019Z,59.70
2019-06-10T08:59:32.516Z,60.00
2019-06-10T09:00:33.809Z,59.80
2019-06-10T09:01:35.661Z,59.50
2019-06-10T09:02:39.175Z,58.60
2019-06-10T09:03:43.576Z,58.90
2019-06-10T09:04:47.618Z,59.20
2019-06-10T09:05:50.921Z,58.70
2019-06-10T09:06:53.653Z,58.20
2019-06-10T09:07:54.967Z,58.70
2019-06-10T09:08:56.993Z,58.20
2019-06-10T09:09:58.667Z,58.50
2019-06-10T09:11:02.432Z,59.30
2019-06-10T09:12:03.780Z,58.80
2019-06-10T09:13:05.801Z,57.90
2019-06-10T09:14:07.383Z,58.40
2019-06-10T09:15:10.174Z,58.00
2019-06-10T09:16:18.881Z,57.80
2019-06-10T09:17:15.363Z,57.20
2019-06-10T09:18:19.957Z,57.90
2019-06-10T09:19:22.223Z,58.10
2019-06-10T09:20:24.099Z,58.30
2019-06-10T09:21:25.767Z,58.20
2019-06-10T09:22:27.348Z,58.00
2019-06-10T09:23:29.084Z,56.80
2019-06-10T09:24:32.823Z,57.00
2019-06-10T09:25:34.559Z,57.00
2019-06-10T09:26:36.315Z,56.70
2019-06-10T09:27:40.069Z,56.80
2019-06-10T09:28:45.056Z,57.80
2019-06-10T09:29:48.044Z,56.30
2019-06-10T09:30:54.075Z,56.60
2019-06-10T09:31:55.495Z,56.60
2019-06-10T09:32:56.862Z,56.50
2019-06-10T09:33:59.034Z,56.50
2019-06-10T09:35:03.202Z,56.30
2019-06-10T09:36:04.202Z,56.40
2019-06-10T09:37:06.274Z,55.80
2019-06-10T09:38:07.987Z,56.40
2019-06-10T09:39:09.703Z,55.70
2019-06-10T09:40:12.484Z,55.70
2019-06-10T09:41:14.400Z,55.50
2019-06-10T09:42:16.100Z,55.30
2019-06-10T09:43:18.987Z,53.40
2019-06-10T09:44:22.756Z,53.30
2019-06-10T09:45:25.186Z,53.50
2019-06-10T09:46:50.397Z,55.20
2019-06-10T09:47:58.813Z,55.20
2019-06-10T09:48:56.873Z,54.10
2019-06-10T09:49:59.208Z,53.80
2019-06-10T09:51:02.523Z,53.30
2019-06-10T09:52:04.391Z,52.10
2019-06-10T09:53:05.986Z,52.50
2019-06-10T09:54:07.666Z,52.60
2019-06-10T09:55:10.096Z,53.40
2019-06-10T09:56:12.508Z,53.70
2019-06-10T09:57:14.479Z,51.00
2019-06-10T09:58:16.264Z,51.20
2019-06-10T09:59:17.858Z,52.20
2019-06-10T10:00:44.552Z,52.10
2019-06-10T10:01:48.287Z,51.50
2019-06-10T10:02:50.438Z,50.90
2019-06-10T10:03:58.281Z,51.30
2019-06-10T10:04:58.249Z,52.30
2019-06-10T10:06:09.891Z,52.60
2019-06-10T10:07:03.112Z,52.00
2019-06-10T10:08:05.400Z,51.70
2019-06-10T10:09:07.501Z,52.20
2019-06-10T10:10:12.684Z,51.30
2019-06-10T10:11:13.924Z,51.60
2019-06-10T10:12:15.623Z,51.30
2019-06-10T10:13:17.318Z,51.30
2019-06-10T10:14:19.002Z,52.10
2019-06-10T10:15:29.896Z,50.90
2019-06-10T10:16:24.138Z,50.20
2019-06-10T10:17:25.829Z,51.20
2019-06-10T10:18:27.426Z,50.40
2019-06-10T10:19:36.146Z,49.80
2019-06-10T10:20:37.742Z,49.80
2019-06-10T10:21:41.461Z,49.90
2019-06-10T10:22:44.387Z,50.10
2019-06-10T10:23:56.554Z,50.10
2019-06-10T10:24:49.836Z,50.30
2019-06-10T10:25:56.368Z,50.50
2019-06-10T10:26:57.941Z,50.70
2019-06-10T10:27:59.072Z,50.20
2019-06-10T10:29:13.043Z,50.20
2019-06-10T10:30:18.809Z,49.70
2019-06-10T10:31:23.050Z,49.20
2019-06-10T10:32:23.884Z,49.60
2019-06-10T10:33:29.891Z,50.10
2019-06-10T10:34:29.072Z,50.20
2019-06-10T10:35:32.664Z,50.00
2019-06-10T10:36:34.175Z,50.20
2019-06-10T10:37:35.923Z,50.60
2019-06-10T10:38:37.616Z,50.80
2019-06-10T10:39:39.211Z,51.10
2019-06-10T10:40:43.981Z,51.20
2019-06-10T10:41:46.761Z,50.20
2019-06-10T10:42:53.942Z,50.30
2019-06-10T10:43:56.571Z,48.90
2019-06-10T10:44:58.849Z,48.60
2019-06-10T10:46:05.068Z,47.80
2019-06-10T10:47:03.859Z,47.90
2019-06-10T10:48:05.746Z,47.40
2019-06-10T10:49:07.437Z,47.60
2019-06-10T10:50:09.738Z,47.20
2019-06-10T10:51:13.042Z,47.80
2019-06-10T10:52:14.824Z,48.30
2019-06-10T10:53:16.835Z,49.20
2019-06-10T10:54:29.852Z,49.70
2019-06-10T10:55:22.351Z,49.90
2019-06-10T10:56:24.025Z,49.50
2019-06-10T10:57:25.714Z,50.10
2019-06-10T10:58:27.438Z,50.20
2019-06-10T10:59:29.126Z,48.80
2019-06-10T11:00:41.442Z,49.20
2019-06-10T11:01:44.113Z,48.60
2019-06-10T11:02:48.717Z,49.60
2019-06-10T11:03:51.411Z,49.20
2019-06-10T11:04:56.907Z,49.40
2019-06-10T11:06:00.676Z,49.50
2019-06-10T11:07:01.192Z,48.70
2019-06-10T11:08:05.304Z,48.80
2019-06-10T11:09:07.808Z,49.40
2019-06-10T11:10:12.503Z,49.80
2019-06-10T11:11:14.065Z,48.60
2019-06-10T11:12:16.506Z,49.50
2019-06-10T11:13:22.320Z,48.30
2019-06-10T11:14:24.612Z,48.00
2019-06-10T11:15:27.629Z,48.40
2019-06-10T11:16:29.358Z,46.90
2019-06-10T11:17:33.685Z,47.60
2019-06-10T11:18:34.579Z,48.60
2019-06-10T11:19:36.165Z,48.70
2019-06-10T11:20:37.792Z,48.30
2019-06-10T11:21:39.818Z,48.00
2019-06-10T11:22:43.347Z,47.30
2019-06-10T11:23:46.234Z,46.80
2019-06-10T11:24:49.325Z,46.70
2019-06-10T11:25:55.241Z,46.80
2019-06-10T11:26:56.436Z,47.70
2019-06-10T11:27:57.950Z,47.90
2019-06-10T11:29:02.237Z,48.20
2019-06-10T11:30:05.978Z,48.60
2019-06-10T11:31:08.098Z,48.50
2019-06-10T11:32:09.708Z,48.70
2019-06-10T11:33:11.317Z,48.10
2019-06-10T11:34:12.990Z,47.60
2019-06-10T11:35:14.566Z,47.80
2019-06-10T11:36:16.301Z,47.00
2019-06-10T11:37:17.998Z,46.90
2019-06-10T11:38:19.582Z,47.30
2019-06-10T11:39:22.562Z,47.30
2019-06-10T11:40:24.362Z,47.40
2019-06-10T11:41:26.126Z,47.40
2019-06-10T11:42:28.050Z,48.00
2019-06-10T11:43:29.729Z,47.90
2019-06-10T11:44:33.398Z,47.00
2019-06-10T11:45:34.910Z,45.70
2019-06-10T11:46:36.724Z,44.30
2019-06-10T11:47:38.297Z,45.30
2019-06-10T11:48:40.004Z,45.80
2019-06-10T11:49:43.436Z,46.50
2019-06-10T11:50:45.179Z,46.70
2019-06-10T11:51:47.171Z,46.90
2019-06-10T11:52:49.613Z,46.70
2019-06-10T11:53:54.556Z,46.50
2019-06-10T11:55:08.891Z,45.30
2019-06-10T11:55:59.277Z,45.50
2019-06-10T11:57:00.923Z,45.40
2019-06-10T11:58:02.939Z,45.50
2019-06-10T11:59:09.351Z,45.60
2019-06-10T12:00:14.800Z,45.50
2019-06-10T12:01:13.441Z,45.40
2019-06-10T12:02:15.346Z,45.90
2019-06-10T12:03:16.924Z,46.10
2019-06-10T12:04:18.527Z,46.40
2019-06-10T12:05:23.426Z,46.60
2019-06-10T12:06:24.865Z,46.90
2019-06-10T12:07:26.888Z,46.60
2019-06-10T12:08:28.486Z,45.50
2019-06-10T12:09:30.079Z,45.40
2019-06-10T12:10:33.090Z,46.40
2019-06-10T12:11:34.867Z,46.30
2019-06-10T12:12:36.606Z,46.10
2019-06-10T12:13:38.200Z,46.50
2019-06-10T12:14:39.893Z,46.60
2019-06-10T12:16:30.646Z,45.80
2019-06-10T12:17:55.595Z,46.20
2019-06-10T12:18:54.196Z,46.00
2019-06-10T12:19:59.573Z,45.90
2019-06-10T12:21:03.340Z,46.80
2019-06-10T12:22:07.178Z,47.10
2019-06-10T12:23:06.394Z,46.30
2019-06-10T12:24:08.095Z,45.90
2019-06-10T12:25:30.389Z,45.80
2019-06-10T12:26:13.550Z,46.20
2019-06-10T12:27:15.135Z,46.30
2019-06-10T12:28:16.887Z,46.40
2019-06-10T12:29:18.584Z,46.90
2019-06-10T12:30:23.304Z,46.70
2019-06-10T12:31:24.878Z,46.80
2019-06-10T12:32:26.572Z,46.10
2019-06-10T12:33:28.187Z,44.80
2019-06-10T12:34:32.994Z,44.60
2019-06-10T12:35:33.420Z,45.40
2019-06-10T12:36:35.386Z,45.40
2019-06-10T12:37:36.885Z,45.50
2019-06-10T12:38:38.525Z,45.40
2019-06-10T12:39:42.215Z,45.20
2019-06-10T12:40:43.735Z,45.60
2019-06-10T12:41:45.404Z,45.70
2019-06-10T12:42:47.014Z,45.70
2019-06-10T12:43:48.722Z,46.20
2019-06-10T12:44:50.444Z,46.80
2019-06-10T12:45:55.705Z,46.00
2019-06-10T12:47:00.560Z,46.60
2019-06-10T12:48:05.080Z,46.70
2019-06-10T12:49:08.470Z,46.40
2019-06-10T12:50:12.040Z,45.80
2019-06-10T12:51:14.064Z,45.10
2019-06-10T12:52:15.736Z,46.00
2019-06-10T12:53:17.431Z,45.80
2019-06-10T12:54:19.171Z,44.50
2019-06-10T12:55:35.622Z,44.70
2019-06-10T12:56:25.231Z,44.70
2019-06-10T12:57:26.773Z,45.00
2019-06-10T12:58:28.367Z,44.50
2019-06-10T12:59:32.264Z,43.60
2019-06-10T13:00:46.116Z,43.70
2019-06-10T13:01:47.813Z,43.80
2019-06-10T13:02:49.788Z,44.70
2019-06-10T13:03:53.612Z,44.80
2019-06-10T13:05:15.007Z,44.80
2019-06-10T13:06:17.207Z,44.50
2019-06-10T13:07:22.625Z,43.90
2019-06-10T13:08:26.989Z,44.50
2019-06-10T13:09:29.792Z,44.60
2019-06-10T13:10:39.504Z,44.30
2019-06-10T13:11:43.388Z,44.40
2019-06-10T13:12:44.678Z,45.10
2019-06-10T13:13:46.277Z,45.70
2019-06-10T13:14:47.852Z,45.60
2019-06-10T13:15:49.512Z,45.60
2019-06-10T13:16:52.641Z,45.30
2019-06-10T13:17:56.048Z,45.30
2019-06-10T13:18:58.006Z,45.30
2019-06-10T13:19:59.705Z,44.10
2019-06-10T13:21:07.280Z,44.40
2019-06-10T13:22:06.354Z,44.80
2019-06-10T13:23:23.046Z,45.10
2019-06-10T13:24:13.204Z,45.00
2019-06-10T13:25:15.485Z,45.40
2019-06-10T13:26:18.004Z,44.60
2019-06-10T13:27:19.843Z,44.40
2019-06-10T13:28:22.241Z,44.60
2019-06-10T13:29:25.208Z,44.30
2019-06-10T13:30:26.898Z,43.90
2019-06-10T13:31:28.627Z,43.30